sensor_id;sensor_type;location;lat;lon;timestamp;temperature;humidity
15231;DHT22;32569;51.762;8.564;2023-08-06T00:02:14;15.20;99.90
15231;DHT22;32569;51.762;8.564;2023-08-06T00:04:45;15.20;99.90
15231;DHT22;32569;51.762;8.564;2023-08-06T00:07:11;15.30;99.90
15231;DHT22;32569;51.762;8.564;2023-08-06T00:09:38;15.30;99.90
15231;DHT22;32569;51.762;8.564;2023-08-06T00:12:05;15.30;99.90
15231;DHT22;32569;51.762;8.564;2023-08-06T00:14:32;15.30;99.90
15231;DHT22;32569;51.762;8.564;2023-08-06T00:16:59;15.30;99.90
15231;DHT22;32569;51.762;8.564;2023-08-06T00:19:26;15.30;99.90
15231;DHT22;32569;51.762;8.564;2023-08-06T00:21:54;15.20;99.90
15231;DHT22;32569;51.762;8.564;2023-08-06T00:24:20;15.30;99.90
15231;DHT22;32569;51.762;8.564;2023-08-06T00:26:47;15.20;99.90
15231;DHT22;32569;51.762;8.564;2023-08-06T00:29:14;15.10;99.90
15231;DHT22;32569;51.762;8.564;2023-08-06T00:31:40;15.10;99.90
15231;DHT22;32569;51.762;8.564;2023-08-06T00:34:07;15.10;99.90
15231;DHT22;32569;51.762;8.564;2023-08-06T00:36:34;15.10;99.90
15231;DHT22;32569;51.762;8.564;2023-08-06T00:39:05;15.10;99.90
15231;DHT22;32569;51.762;8.564;2023-08-06T00:41:32;15.10;99.90
15231;DHT22;32569;51.762;8.564;2023-08-06T00:43:59;15.20;99.90
15231;DHT22;32569;51.762;8.564;2023-08-06T00:46:26;15.20;99.90
15231;DHT22;32569;51.762;8.564;2023-08-06T00:48:54;15.20;99.90
15231;DHT22;32569;51.762;8.564;2023-08-06T00:51:22;15.20;99.90
15231;DHT22;32569;51.762;8.564;2023-08-06T00:53:49;15.20;99.90
15231;DHT22;32569;51.762;8.564;2023-08-06T00:56:18;15.20;99.90
15231;DHT22;32569;51.762;8.564;2023-08-06T00:58:45;15.20;99.90
15231;DHT22;32569;51.762;8.564;2023-08-06T01:01:12;15.30;99.90
15231;DHT22;32569;51.762;8.564;2023-08-06T01:03:39;15.20;99.90
15231;DHT22;32569;51.762;8.564;2023-08-06T01:06:06;15.30;99.90
15231;DHT22;32569;51.762;8.564;2023-08-06T01:08:50;15.30;99.90
15231;DHT22;32569;51.762;8.564;2023-08-06T01:11:26;15.30;99.90
15231;DHT22;32569;51.762;8.564;2023-08-06T01:14:02;15.20;99.90
15231;DHT22;32569;51.762;8.564;2023-08-06T01:16:29;15.20;99.90
15231;DHT22;32569;51.762;8.564;2023-08-06T01:18:58;15.20;99.90
15231;DHT22;32569;51.762;8.564;2023-08-06T01:21:26;15.10;99.90
15231;DHT22;32569;51.762;8.564;2023-08-06T01:23:53;15.00;99.90
15231;DHT22;32569;51.762;8.564;2023-08-06T01:26:26;15.00;99.90
15231;DHT22;32569;51.762;8.564;2023-08-06T01:28:59;15.00;99.90
15231;DHT22;32569;51.762;8.564;2023-08-06T01:31:31;14.90;99.90
15231;DHT22;32569;51.762;8.564;2023-08-06T01:33:59;14.90;99.90
15231;DHT22;32569;51.762;8.564;2023-08-06T01:36:30;14.80;99.90
15231;DHT22;32569;51.762;8.564;2023-08-06T01:38:57;14.90;99.90
15231;DHT22;32569;51.762;8.564;2023-08-06T01:41:23;14.90;99.90
15231;DHT22;32569;51.762;8.564;2023-08-06T01:43:50;14.80;99.90
15231;DHT22;32569;51.762;8.564;2023-08-06T01:46:17;14.80;99.90
15231;DHT22;32569;51.762;8.564;2023-08-06T01:48:44;14.70;99.90
15231;DHT22;32569;51.762;8.564;2023-08-06T01:51:10;14.80;99.90
15231;DHT22;32569;51.762;8.564;2023-08-06T01:53:38;14.70;99.90
15231;DHT22;32569;51.762;8.564;2023-08-06T01:56:05;14.70;99.90
15231;DHT22;32569;51.762;8.564;2023-08-06T01:58:34;14.70;99.90
15231;DHT22;32569;51.762;8.564;2023-08-06T02:01:01;14.60;99.90
15231;DHT22;32569;51.762;8.564;2023-08-06T02:03:34;14.60;99.90
15231;DHT22;32569;51.762;8.564;2023-08-06T02:06:01;14.60;99.90
15231;DHT22;32569;51.762;8.564;2023-08-06T02:08:27;14.50;99.90
15231;DHT22;32569;51.762;8.564;2023-08-06T02:10:55;14.40;99.90
15231;DHT22;32569;51.762;8.564;2023-08-06T02:13:23;14.50;99.90
15231;DHT22;32569;51.762;8.564;2023-08-06T02:15:50;14.50;99.90
15231;DHT22;32569;51.762;8.564;2023-08-06T02:18:16;14.40;99.90
15231;DHT22;32569;51.762;8.564;2023-08-06T02:20:43;14.40;99.90
15231;DHT22;32569;51.762;8.564;2023-08-06T02:23:13;14.40;99.90
15231;DHT22;32569;51.762;8.564;2023-08-06T02:25:39;14.40;99.90
15231;DHT22;32569;51.762;8.564;2023-08-06T02:28:07;14.40;99.90
15231;DHT22;32569;51.762;8.564;2023-08-06T02:30:34;14.40;99.90
15231;DHT22;32569;51.762;8.564;2023-08-06T02:33:01;14.30;99.90
15231;DHT22;32569;51.762;8.564;2023-08-06T02:35:27;14.30;99.90
15231;DHT22;32569;51.762;8.564;2023-08-06T02:37:54;14.30;99.90
15231;DHT22;32569;51.762;8.564;2023-08-06T02:40:24;14.20;99.90
15231;DHT22;32569;51.762;8.564;2023-08-06T02:42:50;14.20;99.90
15231;DHT22;32569;51.762;8.564;2023-08-06T02:45:19;14.20;99.90
15231;DHT22;32569;51.762;8.564;2023-08-06T02:47:45;14.20;99.90
15231;DHT22;32569;51.762;8.564;2023-08-06T02:50:12;14.20;99.90
15231;DHT22;32569;51.762;8.564;2023-08-06T02:52:39;14.20;99.90
15231;DHT22;32569;51.762;8.564;2023-08-06T02:55:13;14.20;99.90
15231;DHT22;32569;51.762;8.564;2023-08-06T02:57:40;14.20;99.90
15231;DHT22;32569;51.762;8.564;2023-08-06T03:00:19;14.10;99.90
15231;DHT22;32569;51.762;8.564;2023-08-06T03:02:46;14.10;99.90
15231;DHT22;32569;51.762;8.564;2023-08-06T03:05:20;14.10;99.90
15231;DHT22;32569;51.762;8.564;2023-08-06T03:07:47;14.10;99.90
15231;DHT22;32569;51.762;8.564;2023-08-06T03:10:14;14.10;99.90
15231;DHT22;32569;51.762;8.564;2023-08-06T03:12:40;14.10;99.90
15231;DHT22;32569;51.762;8.564;2023-08-06T03:15:13;14.10;99.90
15231;DHT22;32569;51.762;8.564;2023-08-06T03:17:41;14.20;99.90
15231;DHT22;32569;51.762;8.564;2023-08-06T03:20:10;14.20;99.90
15231;DHT22;32569;51.762;8.564;2023-08-06T03:22:37;14.10;99.90
15231;DHT22;32569;51.762;8.564;2023-08-06T03:25:06;14.10;99.90
15231;DHT22;32569;51.762;8.564;2023-08-06T03:27:33;14.00;99.90
15231;DHT22;32569;51.762;8.564;2023-08-06T03:30:00;14.00;99.90
15231;DHT22;32569;51.762;8.564;2023-08-06T03:32:27;14.00;99.90
15231;DHT22;32569;51.762;8.564;2023-08-06T03:34:55;14.00;99.90
15231;DHT22;32569;51.762;8.564;2023-08-06T03:37:22;14.10;99.90
15231;DHT22;32569;51.762;8.564;2023-08-06T03:39:48;14.20;99.90
15231;DHT22;32569;51.762;8.564;2023-08-06T03:42:15;14.20;99.90
15231;DHT22;32569;51.762;8.564;2023-08-06T03:44:42;14.20;99.90
15231;DHT22;32569;51.762;8.564;2023-08-06T03:47:08;14.20;99.90
15231;DHT22;32569;51.762;8.564;2023-08-06T03:49:35;14.20;99.90
15231;DHT22;32569;51.762;8.564;2023-08-06T03:52:07;14.20;99.90
15231;DHT22;32569;51.762;8.564;2023-08-06T03:54:33;14.10;99.90
15231;DHT22;32569;51.762;8.564;2023-08-06T03:57:00;14.10;99.90
15231;DHT22;32569;51.762;8.564;2023-08-06T03:59:27;14.10;99.90
15231;DHT22;32569;51.762;8.564;2023-08-06T04:01:54;14.20;99.90
15231;DHT22;32569;51.762;8.564;2023-08-06T04:04:20;14.20;99.90
15231;DHT22;32569;51.762;8.564;2023-08-06T04:06:47;14.20;99.90
15231;DHT22;32569;51.762;8.564;2023-08-06T04:09:15;14.20;99.90
15231;DHT22;32569;51.762;8.564;2023-08-06T04:11:42;14.20;99.90
15231;DHT22;32569;51.762;8.564;2023-08-06T04:14:08;14.20;99.90
15231;DHT22;32569;51.762;8.564;2023-08-06T04:16:35;14.20;99.90
15231;DHT22;32569;51.762;8.564;2023-08-06T04:19:02;14.20;99.90
15231;DHT22;32569;51.762;8.564;2023-08-06T04:21:28;14.20;99.90
15231;DHT22;32569;51.762;8.564;2023-08-06T04:23:55;14.20;99.90
15231;DHT22;32569;51.762;8.564;2023-08-06T04:26:23;14.20;99.90
15231;DHT22;32569;51.762;8.564;2023-08-06T04:28:50;14.10;99.90
15231;DHT22;32569;51.762;8.564;2023-08-06T04:31:17;14.10;99.90
15231;DHT22;32569;51.762;8.564;2023-08-06T04:33:43;14.10;99.90
15231;DHT22;32569;51.762;8.564;2023-08-06T04:36:13;14.10;99.90
15231;DHT22;32569;51.762;8.564;2023-08-06T04:38:40;14.00;99.90
15231;DHT22;32569;51.762;8.564;2023-08-06T04:41:10;14.00;99.90
15231;DHT22;32569;51.762;8.564;2023-08-06T04:43:38;14.10;99.90
15231;DHT22;32569;51.762;8.564;2023-08-06T04:46:05;14.10;99.90
15231;DHT22;32569;51.762;8.564;2023-08-06T04:48:32;14.10;99.90
15231;DHT22;32569;51.762;8.564;2023-08-06T04:50:59;14.20;99.90
15231;DHT22;32569;51.762;8.564;2023-08-06T04:53:25;14.20;99.90
15231;DHT22;32569;51.762;8.564;2023-08-06T04:55:52;14.20;99.90
15231;DHT22;32569;51.762;8.564;2023-08-06T04:58:19;14.10;99.90
15231;DHT22;32569;51.762;8.564;2023-08-06T05:00:49;14.10;99.90
15231;DHT22;32569;51.762;8.564;2023-08-06T05:03:16;14.10;99.90
15231;DHT22;32569;51.762;8.564;2023-08-06T05:05:43;14.10;99.90
15231;DHT22;32569;51.762;8.564;2023-08-06T05:08:14;14.10;99.90
15231;DHT22;32569;51.762;8.564;2023-08-06T05:10:42;14.20;99.90
15231;DHT22;32569;51.762;8.564;2023-08-06T05:13:09;14.40;99.90
15231;DHT22;32569;51.762;8.564;2023-08-06T05:15:39;14.30;99.90
15231;DHT22;32569;51.762;8.564;2023-08-06T05:18:09;14.20;99.90
15231;DHT22;32569;51.762;8.564;2023-08-06T05:20:36;14.30;99.90
15231;DHT22;32569;51.762;8.564;2023-08-06T05:23:03;14.20;99.90
15231;DHT22;32569;51.762;8.564;2023-08-06T05:25:30;14.20;99.90
15231;DHT22;32569;51.762;8.564;2023-08-06T05:27:57;14.30;99.90
15231;DHT22;32569;51.762;8.564;2023-08-06T05:30:24;14.30;99.90
15231;DHT22;32569;51.762;8.564;2023-08-06T05:32:50;14.40;99.90
15231;DHT22;32569;51.762;8.564;2023-08-06T05:35:18;14.60;99.90
15231;DHT22;32569;51.762;8.564;2023-08-06T05:37:46;14.70;99.90
15231;DHT22;32569;51.762;8.564;2023-08-06T05:40:12;14.80;99.90
15231;DHT22;32569;51.762;8.564;2023-08-06T05:42:39;14.90;99.90
15231;DHT22;32569;51.762;8.564;2023-08-06T05:45:07;14.90;99.90
15231;DHT22;32569;51.762;8.564;2023-08-06T05:47:35;14.90;99.90
15231;DHT22;32569;51.762;8.564;2023-08-06T05:50:02;14.80;99.90
15231;DHT22;32569;51.762;8.564;2023-08-06T05:52:30;14.80;99.90
15231;DHT22;32569;51.762;8.564;2023-08-06T05:54:56;14.80;99.90
15231;DHT22;32569;51.762;8.564;2023-08-06T05:57:23;14.80;99.90
15231;DHT22;32569;51.762;8.564;2023-08-06T05:59:50;14.90;99.90
15231;DHT22;32569;51.762;8.564;2023-08-06T06:02:16;14.90;99.90
15231;DHT22;32569;51.762;8.564;2023-08-06T06:04:44;15.00;99.90
15231;DHT22;32569;51.762;8.564;2023-08-06T06:07:11;15.00;99.90
15231;DHT22;32569;51.762;8.564;2023-08-06T06:09:39;15.10;99.90
15231;DHT22;32569;51.762;8.564;2023-08-06T06:12:06;15.20;99.90
15231;DHT22;32569;51.762;8.564;2023-08-06T06:14:33;15.20;99.90
15231;DHT22;32569;51.762;8.564;2023-08-06T06:17:00;15.30;99.90
15231;DHT22;32569;51.762;8.564;2023-08-06T06:19:26;15.40;99.90
15231;DHT22;32569;51.762;8.564;2023-08-06T06:21:53;15.50;99.90
15231;DHT22;32569;51.762;8.564;2023-08-06T06:24:23;15.60;99.90
15231;DHT22;32569;51.762;8.564;2023-08-06T06:26:51;16.00;99.90
15231;DHT22;32569;51.762;8.564;2023-08-06T06:29:17;16.20;99.90
15231;DHT22;32569;51.762;8.564;2023-08-06T06:31:44;16.40;99.90
15231;DHT22;32569;51.762;8.564;2023-08-06T06:34:11;16.50;99.90
15231;DHT22;32569;51.762;8.564;2023-08-06T06:36:37;16.50;99.90
15231;DHT22;32569;51.762;8.564;2023-08-06T06:39:07;16.50;99.90
15231;DHT22;32569;51.762;8.564;2023-08-06T06:41:34;16.50;99.90
15231;DHT22;32569;51.762;8.564;2023-08-06T06:44:08;16.40;99.90
15231;DHT22;32569;51.762;8.564;2023-08-06T06:46:34;16.50;99.90
15231;DHT22;32569;51.762;8.564;2023-08-06T06:49:01;16.50;99.90
15231;DHT22;32569;51.762;8.564;2023-08-06T06:51:28;16.50;99.90
15231;DHT22;32569;51.762;8.564;2023-08-06T06:53:57;16.60;99.90
15231;DHT22;32569;51.762;8.564;2023-08-06T06:56:23;16.60;99.90
15231;DHT22;32569;51.762;8.564;2023-08-06T06:58:53;16.60;99.90
15231;DHT22;32569;51.762;8.564;2023-08-06T07:01:21;16.70;99.90
15231;DHT22;32569;51.762;8.564;2023-08-06T07:03:48;16.80;99.90
15231;DHT22;32569;51.762;8.564;2023-08-06T07:06:14;16.80;99.90
15231;DHT22;32569;51.762;8.564;2023-08-06T07:08:46;16.80;99.90
15231;DHT22;32569;51.762;8.564;2023-08-06T07:11:13;17.00;99.90
15231;DHT22;32569;51.762;8.564;2023-08-06T07:13:39;17.00;99.90
15231;DHT22;32569;51.762;8.564;2023-08-06T07:16:06;17.00;99.90
15231;DHT22;32569;51.762;8.564;2023-08-06T07:18:34;16.90;99.90
15231;DHT22;32569;51.762;8.564;2023-08-06T07:21:01;16.90;99.90
15231;DHT22;32569;51.762;8.564;2023-08-06T07:23:28;17.00;99.90
15231;DHT22;32569;51.762;8.564;2023-08-06T07:25:54;16.90;99.90
15231;DHT22;32569;51.762;8.564;2023-08-06T07:28:21;16.90;99.90
15231;DHT22;32569;51.762;8.564;2023-08-06T07:30:51;16.90;99.90
15231;DHT22;32569;51.762;8.564;2023-08-06T07:33:18;16.90;99.90
15231;DHT22;32569;51.762;8.564;2023-08-06T07:35:46;16.90;99.90
15231;DHT22;32569;51.762;8.564;2023-08-06T07:38:12;16.90;99.90
15231;DHT22;32569;51.762;8.564;2023-08-06T07:40:40;16.90;99.90
15231;DHT22;32569;51.762;8.564;2023-08-06T07:43:07;17.00;99.90
15231;DHT22;32569;51.762;8.564;2023-08-06T07:45:37;17.10;99.90
15231;DHT22;32569;51.762;8.564;2023-08-06T07:48:04;17.10;99.90
15231;DHT22;32569;51.762;8.564;2023-08-06T07:50:32;17.20;99.90
15231;DHT22;32569;51.762;8.564;2023-08-06T07:53:00;17.20;99.90
15231;DHT22;32569;51.762;8.564;2023-08-06T07:55:27;17.20;99.90
15231;DHT22;32569;51.762;8.564;2023-08-06T07:57:54;17.20;99.90
15231;DHT22;32569;51.762;8.564;2023-08-06T08:00:21;17.40;99.90
15231;DHT22;32569;51.762;8.564;2023-08-06T08:02:47;17.40;99.90
15231;DHT22;32569;51.762;8.564;2023-08-06T08:05:14;17.40;99.90
15231;DHT22;32569;51.762;8.564;2023-08-06T08:07:41;17.50;99.90
15231;DHT22;32569;51.762;8.564;2023-08-06T08:10:09;17.70;99.90
15231;DHT22;32569;51.762;8.564;2023-08-06T08:12:36;17.80;99.90
15231;DHT22;32569;51.762;8.564;2023-08-06T08:15:04;17.80;99.90
15231;DHT22;32569;51.762;8.564;2023-08-06T08:17:31;17.70;99.90
15231;DHT22;32569;51.762;8.564;2023-08-06T08:19:58;17.70;99.90
15231;DHT22;32569;51.762;8.564;2023-08-06T08:22:24;17.80;99.90
15231;DHT22;32569;51.762;8.564;2023-08-06T08:24:51;17.90;99.90
15231;DHT22;32569;51.762;8.564;2023-08-06T08:27:19;17.90;99.90
15231;DHT22;32569;51.762;8.564;2023-08-06T08:29:46;18.00;99.90
15231;DHT22;32569;51.762;8.564;2023-08-06T08:32:12;18.10;99.90
15231;DHT22;32569;51.762;8.564;2023-08-06T08:34:39;18.30;99.90
15231;DHT22;32569;51.762;8.564;2023-08-06T08:37:06;18.40;99.90
15231;DHT22;32569;51.762;8.564;2023-08-06T08:39:32;18.70;99.90
15231;DHT22;32569;51.762;8.564;2023-08-06T08:42:02;18.80;99.90
15231;DHT22;32569;51.762;8.564;2023-08-06T08:44:31;18.70;99.90
15231;DHT22;32569;51.762;8.564;2023-08-06T08:46:59;18.70;99.90
15231;DHT22;32569;51.762;8.564;2023-08-06T08:49:32;18.60;99.90
15231;DHT22;32569;51.762;8.564;2023-08-06T08:51:59;18.70;99.90
15231;DHT22;32569;51.762;8.564;2023-08-06T08:54:28;18.70;99.90
15231;DHT22;32569;51.762;8.564;2023-08-06T08:56:57;18.80;99.90
15231;DHT22;32569;51.762;8.564;2023-08-06T08:59:27;18.80;99.90
15231;DHT22;32569;51.762;8.564;2023-08-06T09:01:56;18.80;99.90
15231;DHT22;32569;51.762;8.564;2023-08-06T09:04:23;18.80;99.90
15231;DHT22;32569;51.762;8.564;2023-08-06T09:06:51;18.90;99.90
15231;DHT22;32569;51.762;8.564;2023-08-06T09:09:28;19.00;99.90
15231;DHT22;32569;51.762;8.564;2023-08-06T09:12:00;18.90;99.90
15231;DHT22;32569;51.762;8.564;2023-08-06T09:14:27;18.80;99.90
15231;DHT22;32569;51.762;8.564;2023-08-06T09:16:56;18.70;99.90
15231;DHT22;32569;51.762;8.564;2023-08-06T09:19:23;18.60;99.90
15231;DHT22;32569;51.762;8.564;2023-08-06T09:21:54;18.60;99.90
15231;DHT22;32569;51.762;8.564;2023-08-06T09:24:21;18.60;99.90
15231;DHT22;32569;51.762;8.564;2023-08-06T09:26:48;18.70;99.90
15231;DHT22;32569;51.762;8.564;2023-08-06T09:29:18;18.70;99.90
15231;DHT22;32569;51.762;8.564;2023-08-06T09:31:47;18.80;99.90
15231;DHT22;32569;51.762;8.564;2023-08-06T09:34:17;19.00;99.90
15231;DHT22;32569;51.762;8.564;2023-08-06T09:36:46;19.40;99.90
15231;DHT22;32569;51.762;8.564;2023-08-06T09:39:14;19.60;99.90
15231;DHT22;32569;51.762;8.564;2023-08-06T09:41:41;19.90;99.90
15231;DHT22;32569;51.762;8.564;2023-08-06T09:44:15;19.90;99.90
15231;DHT22;32569;51.762;8.564;2023-08-06T09:46:42;20.00;99.90
15231;DHT22;32569;51.762;8.564;2023-08-06T09:49:09;20.00;99.90
15231;DHT22;32569;51.762;8.564;2023-08-06T09:51:38;19.80;99.90
15231;DHT22;32569;51.762;8.564;2023-08-06T09:54:05;19.80;99.90
15231;DHT22;32569;51.762;8.564;2023-08-06T09:56:33;19.60;99.90
15231;DHT22;32569;51.762;8.564;2023-08-06T09:59:04;19.60;99.90
15231;DHT22;32569;51.762;8.564;2023-08-06T10:01:32;19.80;99.90
15231;DHT22;32569;51.762;8.564;2023-08-06T10:04:00;19.70;99.90
15231;DHT22;32569;51.762;8.564;2023-08-06T10:06:28;19.70;99.90
15231;DHT22;32569;51.762;8.564;2023-08-06T10:08:56;19.90;99.90
15231;DHT22;32569;51.762;8.564;2023-08-06T10:11:25;19.90;99.90
15231;DHT22;32569;51.762;8.564;2023-08-06T10:13:55;20.00;99.90
15231;DHT22;32569;51.762;8.564;2023-08-06T10:16:23;20.00;99.90
15231;DHT22;32569;51.762;8.564;2023-08-06T10:18:51;20.00;99.90
15231;DHT22;32569;51.762;8.564;2023-08-06T10:21:18;20.00;99.90
15231;DHT22;32569;51.762;8.564;2023-08-06T10:23:53;20.00;99.90
15231;DHT22;32569;51.762;8.564;2023-08-06T10:26:25;20.00;99.90
15231;DHT22;32569;51.762;8.564;2023-08-06T10:28:52;20.00;99.50
15231;DHT22;32569;51.762;8.564;2023-08-06T10:31:18;20.10;99.90
15231;DHT22;32569;51.762;8.564;2023-08-06T10:33:46;20.10;99.80
15231;DHT22;32569;51.762;8.564;2023-08-06T10:36:14;20.10;99.70
15231;DHT22;32569;51.762;8.564;2023-08-06T10:38:45;20.30;98.90
15231;DHT22;32569;51.762;8.564;2023-08-06T10:41:16;20.40;99.50
15231;DHT22;32569;51.762;8.564;2023-08-06T10:43:47;20.50;99.30
15231;DHT22;32569;51.762;8.564;2023-08-06T10:46:23;20.50;99.80
15231;DHT22;32569;51.762;8.564;2023-08-06T10:48:50;20.50;99.90
15231;DHT22;32569;51.762;8.564;2023-08-06T10:51:17;20.40;99.90
15231;DHT22;32569;51.762;8.564;2023-08-06T10:53:46;20.40;99.90
15231;DHT22;32569;51.762;8.564;2023-08-06T10:56:13;20.40;99.90
15231;DHT22;32569;51.762;8.564;2023-08-06T10:58:40;20.20;99.90
15231;DHT22;32569;51.762;8.564;2023-08-06T11:01:09;20.10;99.90
15231;DHT22;32569;51.762;8.564;2023-08-06T11:03:36;19.90;99.90
15231;DHT22;32569;51.762;8.564;2023-08-06T11:06:03;19.80;99.90
15231;DHT22;32569;51.762;8.564;2023-08-06T11:08:34;19.80;99.90
15231;DHT22;32569;51.762;8.564;2023-08-06T11:11:08;19.80;99.90
15231;DHT22;32569;51.762;8.564;2023-08-06T11:13:36;19.80;99.90
15231;DHT22;32569;51.762;8.564;2023-08-06T11:16:03;19.80;99.90
15231;DHT22;32569;51.762;8.564;2023-08-06T11:18:31;19.90;99.90
15231;DHT22;32569;51.762;8.564;2023-08-06T11:20:58;19.70;99.90
15231;DHT22;32569;51.762;8.564;2023-08-06T11:23:26;19.60;99.90
15231;DHT22;32569;51.762;8.564;2023-08-06T11:25:54;19.70;99.90
15231;DHT22;32569;51.762;8.564;2023-08-06T11:28:21;19.70;99.90
15231;DHT22;32569;51.762;8.564;2023-08-06T11:30:48;19.70;99.90
15231;DHT22;32569;51.762;8.564;2023-08-06T11:33:14;19.80;99.90
15231;DHT22;32569;51.762;8.564;2023-08-06T11:35:42;19.80;99.90
15231;DHT22;32569;51.762;8.564;2023-08-06T11:38:09;19.90;99.90
15231;DHT22;32569;51.762;8.564;2023-08-06T11:40:36;19.90;99.90
15231;DHT22;32569;51.762;8.564;2023-08-06T11:43:03;19.90;99.90
15231;DHT22;32569;51.762;8.564;2023-08-06T11:45:35;19.90;99.90
15231;DHT22;32569;51.762;8.564;2023-08-06T11:48:05;19.90;99.90
15231;DHT22;32569;51.762;8.564;2023-08-06T11:50:35;19.80;99.90
15231;DHT22;32569;51.762;8.564;2023-08-06T11:53:11;19.70;99.90
15231;DHT22;32569;51.762;8.564;2023-08-06T11:55:38;19.60;99.90
15231;DHT22;32569;51.762;8.564;2023-08-06T11:58:05;19.50;99.90
15231;DHT22;32569;51.762;8.564;2023-08-06T12:00:32;19.50;99.90
15231;DHT22;32569;51.762;8.564;2023-08-06T12:02:59;19.40;99.90
15231;DHT22;32569;51.762;8.564;2023-08-06T12:05:29;19.50;99.90
15231;DHT22;32569;51.762;8.564;2023-08-06T12:07:59;19.60;99.90
15231;DHT22;32569;51.762;8.564;2023-08-06T12:10:29;19.50;99.90
15231;DHT22;32569;51.762;8.564;2023-08-06T12:12:56;19.60;99.90
15231;DHT22;32569;51.762;8.564;2023-08-06T12:15:23;19.20;99.90
15231;DHT22;32569;51.762;8.564;2023-08-06T12:17:50;19.00;99.90
15231;DHT22;32569;51.762;8.564;2023-08-06T12:20:17;18.90;99.90
15231;DHT22;32569;51.762;8.564;2023-08-06T12:22:44;19.00;99.90
15231;DHT22;32569;51.762;8.564;2023-08-06T12:25:12;18.90;99.90
15231;DHT22;32569;51.762;8.564;2023-08-06T12:27:41;18.90;99.90
15231;DHT22;32569;51.762;8.564;2023-08-06T12:30:09;19.00;99.90
15231;DHT22;32569;51.762;8.564;2023-08-06T12:32:36;19.10;99.90
15231;DHT22;32569;51.762;8.564;2023-08-06T12:35:04;19.20;99.90
15231;DHT22;32569;51.762;8.564;2023-08-06T12:37:32;19.30;99.90
15231;DHT22;32569;51.762;8.564;2023-08-06T12:39:59;19.30;99.90
15231;DHT22;32569;51.762;8.564;2023-08-06T12:42:27;19.30;99.90
15231;DHT22;32569;51.762;8.564;2023-08-06T12:44:55;19.50;99.90
15231;DHT22;32569;51.762;8.564;2023-08-06T12:47:22;19.60;99.90
15231;DHT22;32569;51.762;8.564;2023-08-06T12:49:49;19.80;99.90
15231;DHT22;32569;51.762;8.564;2023-08-06T12:52:16;20.00;99.90
15231;DHT22;32569;51.762;8.564;2023-08-06T12:54:45;19.90;99.90
15231;DHT22;32569;51.762;8.564;2023-08-06T12:57:11;20.10;99.90
15231;DHT22;32569;51.762;8.564;2023-08-06T12:59:38;20.00;99.90
15231;DHT22;32569;51.762;8.564;2023-08-06T13:02:06;20.10;99.90
15231;DHT22;32569;51.762;8.564;2023-08-06T13:04:33;20.20;99.90
15231;DHT22;32569;51.762;8.564;2023-08-06T13:07:00;20.30;99.90
15231;DHT22;32569;51.762;8.564;2023-08-06T13:09:27;20.30;99.90
15231;DHT22;32569;51.762;8.564;2023-08-06T13:11:53;20.50;99.90
15231;DHT22;32569;51.762;8.564;2023-08-06T13:14:20;20.60;99.90
15231;DHT22;32569;51.762;8.564;2023-08-06T13:16:47;20.50;99.90
15231;DHT22;32569;51.762;8.564;2023-08-06T13:19:15;20.40;99.90
15231;DHT22;32569;51.762;8.564;2023-08-06T13:22:02;20.30;99.90
15231;DHT22;32569;51.762;8.564;2023-08-06T13:24:30;20.40;99.90
15231;DHT22;32569;51.762;8.564;2023-08-06T13:26:57;20.50;99.90
15231;DHT22;32569;51.762;8.564;2023-08-06T13:29:25;20.50;99.90
15231;DHT22;32569;51.762;8.564;2023-08-06T13:31:52;20.50;99.90
15231;DHT22;32569;51.762;8.564;2023-08-06T13:34:20;20.60;99.90
15231;DHT22;32569;51.762;8.564;2023-08-06T13:36:46;20.70;99.90
15231;DHT22;32569;51.762;8.564;2023-08-06T13:39:13;20.70;99.90
15231;DHT22;32569;51.762;8.564;2023-08-06T13:41:41;20.60;99.90
15231;DHT22;32569;51.762;8.564;2023-08-06T13:44:08;20.40;99.90
15231;DHT22;32569;51.762;8.564;2023-08-06T13:46:36;20.30;99.90
15231;DHT22;32569;51.762;8.564;2023-08-06T13:49:02;20.20;99.90
15231;DHT22;32569;51.762;8.564;2023-08-06T13:51:30;20.10;99.90
15231;DHT22;32569;51.762;8.564;2023-08-06T13:53:59;20.10;99.90
15231;DHT22;32569;51.762;8.564;2023-08-06T13:56:26;19.70;99.90
15231;DHT22;32569;51.762;8.564;2023-08-06T13:58:52;19.60;99.90
15231;DHT22;32569;51.762;8.564;2023-08-06T14:01:19;19.40;99.90
15231;DHT22;32569;51.762;8.564;2023-08-06T14:03:51;19.30;99.90
15231;DHT22;32569;51.762;8.564;2023-08-06T14:06:18;19.20;99.90
15231;DHT22;32569;51.762;8.564;2023-08-06T14:08:47;19.20;99.90
15231;DHT22;32569;51.762;8.564;2023-08-06T14:11:13;19.20;99.90
15231;DHT22;32569;51.762;8.564;2023-08-06T14:13:40;19.30;99.90
15231;DHT22;32569;51.762;8.564;2023-08-06T14:16:07;19.20;99.90
15231;DHT22;32569;51.762;8.564;2023-08-06T14:18:34;19.10;99.90
15231;DHT22;32569;51.762;8.564;2023-08-06T14:21:03;19.10;99.90
15231;DHT22;32569;51.762;8.564;2023-08-06T14:23:30;19.20;99.90
15231;DHT22;32569;51.762;8.564;2023-08-06T14:25:58;19.30;99.90
15231;DHT22;32569;51.762;8.564;2023-08-06T14:28:24;19.20;99.90
15231;DHT22;32569;51.762;8.564;2023-08-06T14:30:51;19.10;99.90
15231;DHT22;32569;51.762;8.564;2023-08-06T14:33:18;19.10;99.90
15231;DHT22;32569;51.762;8.564;2023-08-06T14:35:45;19.20;99.90
15231;DHT22;32569;51.762;8.564;2023-08-06T14:38:12;19.20;99.90
15231;DHT22;32569;51.762;8.564;2023-08-06T14:40:38;19.00;99.90
15231;DHT22;32569;51.762;8.564;2023-08-06T14:43:07;19.00;99.90
15231;DHT22;32569;51.762;8.564;2023-08-06T14:45:37;19.00;99.90
15231;DHT22;32569;51.762;8.564;2023-08-06T14:48:04;19.00;99.90
15231;DHT22;32569;51.762;8.564;2023-08-06T14:50:30;19.00;99.90
15231;DHT22;32569;51.762;8.564;2023-08-06T14:52:57;19.00;99.90
15231;DHT22;32569;51.762;8.564;2023-08-06T14:55:26;19.00;99.90
15231;DHT22;32569;51.762;8.564;2023-08-06T14:57:53;18.90;99.90
15231;DHT22;32569;51.762;8.564;2023-08-06T15:00:21;18.80;99.90
15231;DHT22;32569;51.762;8.564;2023-08-06T15:02:48;18.80;99.90
15231;DHT22;32569;51.762;8.564;2023-08-06T15:05:15;18.70;99.90
15231;DHT22;32569;51.762;8.564;2023-08-06T15:07:42;18.60;99.90
15231;DHT22;32569;51.762;8.564;2023-08-06T15:10:09;18.60;99.90
15231;DHT22;32569;51.762;8.564;2023-08-06T15:12:36;18.60;99.90
15231;DHT22;32569;51.762;8.564;2023-08-06T15:15:06;18.60;99.90
15231;DHT22;32569;51.762;8.564;2023-08-06T15:17:34;18.70;99.90
15231;DHT22;32569;51.762;8.564;2023-08-06T15:20:01;18.80;99.90
15231;DHT22;32569;51.762;8.564;2023-08-06T15:22:28;18.80;99.90
15231;DHT22;32569;51.762;8.564;2023-08-06T15:24:57;18.80;99.90
15231;DHT22;32569;51.762;8.564;2023-08-06T15:27:23;18.80;99.90
15231;DHT22;32569;51.762;8.564;2023-08-06T15:29:50;18.80;99.90
15231;DHT22;32569;51.762;8.564;2023-08-06T15:32:17;18.90;99.90
15231;DHT22;32569;51.762;8.564;2023-08-06T15:34:45;18.80;99.90